KSMX/SMX METAR and TAF weather

Enter ICAO airport designator
Station Type Date Time Source
KSMX METAR 2021/04/13 21:51 UTC NOAA

KSMX 132151Z 31011G15KT 8SM BKN026 14/06 A2994 RMK AO2 SLP141 T01440061


Station Type Date Time Source
KSMX Decoded METAR 2021/04/13 21:51 UTC NOAA

SANTA MARIA PUBLIC AIRPORT, CA, United States (KSMX) 34-54N 120-28W 74M
Apr 13, 2021 - 05:51 PM EDT / 2021.04.13 2151 UTC
Wind: from the NW (310 degrees) at 13 MPH (11 KT) gusting to 17 MPH (15 KT):0
Visibility: 8 mile(s):0
Sky conditions: mostly cloudy
Temperature: 57.9 F (14.4 C)
Dew Point: 43.0 F (6.1 C)
Relative Humidity: 57%
Pressure (altimeter): 29.94 in. Hg (1013 hPa)
ob: KSMX 132151Z 31011G15KT 8SM BKN026 14/06 A2994 RMK AO2 SLP141 T01440061
cycle: 22

Station Type Date Time Source
KSMX TAF 2021/04/13 21:51 UTC NOAA

TAF
AMD KSMX 132049Z 1321/1418 VRB04KT P6SM OVC022
FM132300 30012G20KT 6SM HZ BKN018
FM140300 30010KT P6SM OVC015
FM140900 VRB03KT P6SM OVC015

Example: see airport list